createdAt,value
2017-08-12T00:00:01.600Z,0
2017-08-12T00:00:42.071Z,0
2017-08-12T00:01:23.062Z,0
2017-08-12T00:02:03.515Z,0
2017-08-12T00:02:43.964Z,0
2017-08-12T00:03:24.429Z,0
2017-08-12T00:04:04.885Z,0
2017-08-12T00:04:45.353Z,0
2017-08-12T00:05:25.856Z,0
2017-08-12T00:06:06.383Z,0
2017-08-12T00:06:46.751Z,0
2017-08-12T00:07:27.195Z,0
2017-08-12T00:08:07.642Z,0
2017-08-12T00:08:48.097Z,0
2017-08-12T00:09:28.547Z,0
2017-08-12T00:10:08.994Z,0
2017-08-12T00:10:49.435Z,0
2017-08-12T00:11:29.895Z,0
2017-08-12T00:12:10.398Z,0
2017-08-12T00:12:50.846Z,0
2017-08-12T00:13:31.291Z,0
2017-08-12T00:14:11.749Z,0
2017-08-12T00:14:52.205Z,0
2017-08-12T00:15:32.665Z,0
2017-08-12T00:16:13.122Z,0
2017-08-12T00:16:53.704Z,0
2017-08-12T00:17:35.155Z,0
2017-08-12T00:18:14.695Z,0
2017-08-12T00:18:55.141Z,0
2017-08-12T00:19:35.556Z,0
2017-08-12T00:20:15.975Z,0
2017-08-12T00:20:56.416Z,0
2017-08-12T00:21:36.875Z,0
2017-08-12T00:22:17.324Z,0
2017-08-12T00:22:57.774Z,0
2017-08-12T00:23:38.225Z,0
2017-08-12T00:24:18.675Z,0
2017-08-12T00:24:59.105Z,0
2017-08-12T00:25:39.512Z,0
2017-08-12T00:26:19.961Z,0
2017-08-12T00:27:00.352Z,0
2017-08-12T00:27:40.794Z,0
2017-08-12T00:28:21.255Z,0
2017-08-12T00:29:01.710Z,0
2017-08-12T00:29:42.208Z,0
2017-08-12T00:30:22.706Z,0
2017-08-12T00:31:03.165Z,0
2017-08-12T00:31:43.600Z,0
2017-08-12T00:32:24.049Z,0
2017-08-12T00:33:04.498Z,0
2017-08-12T00:33:44.947Z,0
2017-08-12T00:34:25.401Z,0
2017-08-12T00:35:05.866Z,0
2017-08-12T00:35:46.328Z,0
2017-08-12T00:36:26.776Z,0
2017-08-12T00:37:07.238Z,0
2017-08-12T00:37:47.690Z,0
2017-08-12T00:38:28.140Z,0
2017-08-12T00:39:08.598Z,0
2017-08-12T00:39:49.054Z,0
2017-08-12T00:40:29.500Z,0
2017-08-12T00:41:09.951Z,0
2017-08-12T00:41:50.404Z,0
2017-08-12T00:42:30.867Z,0
2017-08-12T00:43:11.312Z,0
2017-08-12T00:43:51.767Z,0
2017-08-12T00:44:32.229Z,0
2017-08-12T00:45:12.683Z,0
2017-08-12T00:45:53.141Z,0
2017-08-12T00:46:33.592Z,0
2017-08-12T00:47:14.043Z,0
2017-08-12T00:47:54.500Z,0
2017-08-12T00:48:34.951Z,0
2017-08-12T00:49:15.394Z,0
2017-08-12T00:49:55.838Z,0
2017-08-12T00:50:36.288Z,0
2017-08-12T00:51:16.751Z,0
2017-08-12T00:51:57.199Z,0
2017-08-12T00:52:37.658Z,0
2017-08-12T00:53:18.115Z,0
2017-08-12T00:53:58.574Z,0
2017-08-12T00:54:39.011Z,0
2017-08-12T00:55:19.471Z,0
2017-08-12T00:55:59.932Z,0
2017-08-12T00:56:40.389Z,0
2017-08-12T00:57:20.901Z,0
2017-08-12T00:58:01.357Z,0
2017-08-12T00:58:41.805Z,0
2017-08-12T00:59:22.273Z,0
2017-08-12T01:00:02.722Z,0
2017-08-12T01:00:43.176Z,0
2017-08-12T01:01:23.628Z,0
2017-08-12T01:02:04.083Z,0
2017-08-12T01:02:44.539Z,0
2017-08-12T01:03:25.002Z,0
2017-08-12T01:04:05.558Z,0
2017-08-12T01:04:45.924Z,0
2017-08-12T01:05:26.384Z,0
2017-08-12T01:06:06.840Z,0
2017-08-12T01:06:47.294Z,0
2017-08-12T01:07:27.747Z,0
2017-08-12T01:08:08.204Z,0
2017-08-12T01:08:48.659Z,0
2017-08-12T01:09:29.113Z,0
2017-08-12T01:10:09.572Z,0
2017-08-12T01:10:50.025Z,0
2017-08-12T01:11:30.488Z,0
2017-08-12T01:12:10.946Z,0
2017-08-12T01:12:51.396Z,0
2017-08-12T01:13:31.853Z,0
2017-08-12T01:14:12.307Z,0
2017-08-12T01:14:52.755Z,0
2017-08-12T01:15:33.205Z,0
2017-08-12T01:16:13.665Z,0
2017-08-12T01:16:54.118Z,0
2017-08-12T01:17:34.575Z,0
2017-08-12T01:18:15.025Z,0
2017-08-12T01:18:55.482Z,0
2017-08-12T01:19:35.924Z,0
2017-08-12T01:20:16.366Z,0
2017-08-12T01:20:56.818Z,0
2017-08-12T01:21:37.274Z,0
2017-08-12T01:22:17.728Z,0
2017-08-12T01:22:58.185Z,0
2017-08-12T01:23:38.641Z,0
2017-08-12T01:24:19.119Z,0
2017-08-12T01:24:59.575Z,0
2017-08-12T01:25:40.022Z,0
2017-08-12T01:26:20.473Z,0
2017-08-12T01:27:00.929Z,0
2017-08-12T01:27:41.387Z,0
2017-08-12T01:28:21.846Z,0
2017-08-12T01:29:02.285Z,0
2017-08-12T01:29:42.735Z,0
2017-08-12T01:30:23.190Z,0
2017-08-12T01:31:03.648Z,0
2017-08-12T01:31:44.099Z,0
2017-08-12T01:32:24.555Z,0
2017-08-12T01:33:05.012Z,0
2017-08-12T01:33:45.458Z,0
2017-08-12T01:34:25.924Z,0
2017-08-12T01:35:06.383Z,0
2017-08-12T01:35:46.842Z,0
2017-08-12T01:36:27.294Z,0
2017-08-12T01:37:07.756Z,0
2017-08-12T01:37:48.206Z,0
2017-08-12T01:38:28.654Z,0
2017-08-12T01:39:09.113Z,0
2017-08-12T01:39:49.569Z,0
2017-08-12T01:40:30.015Z,0
2017-08-12T01:41:10.464Z,0
2017-08-12T01:41:50.909Z,0
2017-08-12T01:42:31.358Z,0
2017-08-12T01:43:11.808Z,0
2017-08-12T01:43:52.255Z,0
2017-08-12T01:44:32.719Z,0
2017-08-12T01:45:13.178Z,0
2017-08-12T01:45:53.633Z,0
2017-08-12T01:46:34.094Z,0
2017-08-12T01:47:14.542Z,0
2017-08-12T01:47:55.005Z,0
2017-08-12T01:48:35.459Z,0
2017-08-12T01:49:15.911Z,0
2017-08-12T01:49:56.363Z,0
2017-08-12T01:50:36.824Z,0
2017-08-12T01:51:17.394Z,0
2017-08-12T01:53:31.445Z,0
2017-08-12T01:54:11.880Z,0
2017-08-12T01:54:52.337Z,0
2017-08-12T01:55:32.786Z,0
2017-08-12T01:56:13.248Z,0
2017-08-12T01:56:53.703Z,0
2017-08-12T01:57:34.156Z,0
2017-08-12T01:58:14.609Z,0
2017-08-12T01:58:55.063Z,0
2017-08-12T01:59:35.517Z,0
2017-08-12T02:00:15.981Z,0
2017-08-12T02:00:56.421Z,0
2017-08-12T02:01:36.893Z,0
2017-08-12T02:02:17.331Z,0
2017-08-12T02:02:57.773Z,0
2017-08-12T02:03:38.187Z,0
2017-08-12T02:04:18.618Z,0
2017-08-12T02:04:59.052Z,0
2017-08-12T02:05:39.504Z,0
2017-08-12T02:06:19.950Z,0
2017-08-12T02:07:00.386Z,0
2017-08-12T02:07:40.828Z,0
2017-08-12T02:08:21.244Z,0
2017-08-12T02:09:01.671Z,0
2017-08-12T02:09:42.100Z,0
2017-08-12T02:10:22.490Z,0
2017-08-12T02:11:02.940Z,0
2017-08-12T02:11:43.388Z,0
2017-08-12T02:12:23.832Z,0
2017-08-12T02:13:04.232Z,0
2017-08-12T02:13:44.637Z,0
2017-08-12T02:14:25.021Z,0
2017-08-12T02:15:05.472Z,0
2017-08-12T02:15:45.846Z,0
2017-08-12T02:16:26.253Z,0
2017-08-12T02:17:06.712Z,0
2017-08-12T02:17:47.102Z,0
2017-08-12T02:18:27.481Z,0
2017-08-12T02:19:07.896Z,0
2017-08-12T02:19:48.358Z,0
2017-08-12T02:20:28.806Z,0
2017-08-12T02:21:09.240Z,0
2017-08-12T02:21:49.649Z,0
2017-08-12T02:24:22.693Z,0
2017-08-12T02:25:03.142Z,0
2017-08-12T02:25:43.587Z,0
2017-08-12T02:26:24.039Z,0
2017-08-12T02:27:04.471Z,0
2017-08-12T02:27:44.900Z,0
2017-08-12T02:28:25.364Z,0
2017-08-12T02:29:05.834Z,0
2017-08-12T02:29:46.285Z,0
2017-08-12T02:30:26.737Z,0
2017-08-12T02:31:07.195Z,0
2017-08-12T02:31:47.646Z,0
2017-08-12T02:32:28.100Z,0
2017-08-12T02:33:08.550Z,0
2017-08-12T02:33:49.003Z,0
2017-08-12T02:34:29.458Z,0
2017-08-12T02:36:57.437Z,0
2017-08-12T02:37:37.897Z,0
2017-08-12T02:38:18.352Z,0
2017-08-12T02:38:58.799Z,0
2017-08-12T02:39:39.231Z,0
2017-08-12T02:40:19.680Z,0
2017-08-12T02:41:00.146Z,0
2017-08-12T02:41:40.576Z,0
2017-08-12T02:42:21.047Z,0
2017-08-12T02:43:01.492Z,0
2017-08-12T02:43:41.937Z,0
2017-08-12T02:44:22.396Z,0
2017-08-12T02:45:02.850Z,0
2017-08-12T02:45:43.302Z,0
2017-08-12T02:46:23.753Z,0
2017-08-12T02:47:04.208Z,0
2017-08-12T02:47:44.696Z,0
2017-08-12T02:48:25.121Z,0
2017-08-12T02:49:05.670Z,0
2017-08-12T02:49:46.052Z,0
2017-08-12T02:50:26.503Z,0
2017-08-12T02:51:06.958Z,0
2017-08-12T02:51:47.407Z,0
2017-08-12T02:52:27.868Z,0
2017-08-12T02:53:08.320Z,0
2017-08-12T02:53:48.768Z,0
2017-08-12T02:54:29.221Z,0
2017-08-12T02:55:09.674Z,0
2017-08-12T02:55:50.132Z,0
2017-08-12T02:56:30.589Z,0
2017-08-12T02:57:11.064Z,0
2017-08-12T02:57:51.519Z,0
2017-08-12T02:58:31.976Z,0
2017-08-12T02:59:12.429Z,0
2017-08-12T02:59:52.882Z,0
2017-08-12T03:00:33.331Z,0
2017-08-12T03:01:13.788Z,0
2017-08-12T03:01:54.251Z,0
2017-08-12T03:02:34.705Z,0
2017-08-12T03:03:15.165Z,0
2017-08-12T03:03:55.626Z,0
2017-08-12T03:04:36.066Z,0
2017-08-12T03:05:16.519Z,0
2017-08-12T03:05:56.980Z,0
2017-08-12T03:06:37.441Z,0
2017-08-12T03:07:17.881Z,0
2017-08-12T03:07:58.344Z,0
2017-08-12T03:08:38.801Z,0
2017-08-12T03:09:19.250Z,0
2017-08-12T03:09:59.709Z,0
2017-08-12T03:10:40.160Z,0
2017-08-12T03:11:20.633Z,0
2017-08-12T03:12:01.115Z,0
2017-08-12T03:12:41.568Z,0
2017-08-12T03:13:22.013Z,0
2017-08-12T03:14:02.472Z,0
2017-08-12T03:14:42.922Z,0
2017-08-12T03:15:23.372Z,0
2017-08-12T03:16:03.836Z,0
2017-08-12T03:16:44.285Z,0
2017-08-12T03:17:24.745Z,0
2017-08-12T03:18:05.194Z,0
2017-08-12T03:18:45.651Z,0
2017-08-12T03:19:26.131Z,0
2017-08-12T03:20:06.589Z,0
2017-08-12T03:20:47.047Z,0
2017-08-12T03:21:27.502Z,0
2017-08-12T03:22:07.957Z,0
2017-08-12T03:22:48.407Z,0
2017-08-12T03:23:28.883Z,0
2017-08-12T03:24:09.311Z,0
2017-08-12T03:24:49.768Z,0
2017-08-12T03:25:30.238Z,0
2017-08-12T03:26:10.690Z,0
2017-08-12T03:26:51.158Z,0
2017-08-12T03:27:31.613Z,0
2017-08-12T03:28:12.098Z,0
2017-08-12T03:28:52.538Z,0
2017-08-12T03:29:32.991Z,0
2017-08-12T03:30:13.446Z,0
2017-08-12T03:30:53.909Z,0
2017-08-12T03:31:34.360Z,0
2017-08-12T03:32:14.816Z,0
2017-08-12T03:32:55.268Z,0
2017-08-12T03:33:35.719Z,0
2017-08-12T03:34:16.171Z,0
2017-08-12T03:34:56.626Z,0
2017-08-12T03:35:37.065Z,0
2017-08-12T03:36:17.521Z,0
2017-08-12T03:36:58.000Z,0
2017-08-12T03:37:38.464Z,0
2017-08-12T03:38:18.925Z,0
2017-08-12T03:38:59.379Z,0
2017-08-12T03:39:39.839Z,0
2017-08-12T03:40:20.323Z,0
2017-08-12T03:41:00.782Z,0
2017-08-12T03:41:41.289Z,0
2017-08-12T03:42:21.732Z,0
2017-08-12T03:43:02.189Z,0
2017-08-12T03:43:42.637Z,0
2017-08-12T03:44:23.100Z,0
2017-08-12T03:45:03.537Z,0
2017-08-12T03:45:43.991Z,0
2017-08-12T03:46:24.447Z,0
2017-08-12T03:47:04.901Z,0
2017-08-12T03:47:45.363Z,0
2017-08-12T03:50:13.337Z,0
2017-08-12T03:50:53.794Z,0
2017-08-12T03:51:34.241Z,0
2017-08-12T03:52:14.707Z,0
2017-08-12T03:52:55.146Z,0
2017-08-12T03:53:35.600Z,0
2017-08-12T03:54:16.047Z,0
2017-08-12T03:54:56.510Z,0
2017-08-12T03:55:36.966Z,0
2017-08-12T03:56:17.418Z,0
2017-08-12T03:56:57.871Z,0
2017-08-12T03:57:38.326Z,0
2017-08-12T03:58:18.773Z,0
2017-08-12T03:58:59.224Z,0
2017-08-12T03:59:39.676Z,0
2017-08-12T04:00:20.138Z,0
2017-08-12T04:01:00.584Z,0
2017-08-12T04:01:41.039Z,0
2017-08-12T04:02:21.490Z,0
2017-08-12T04:03:01.952Z,0
2017-08-12T04:03:42.399Z,0
2017-08-12T04:04:22.832Z,0
2017-08-12T04:05:03.285Z,0
2017-08-12T04:05:43.743Z,0
2017-08-12T04:06:24.176Z,0
2017-08-12T04:07:04.633Z,0
2017-08-12T04:07:45.091Z,0
2017-08-12T04:08:25.546Z,0
2017-08-12T04:09:05.999Z,0
2017-08-12T04:09:46.451Z,0
2017-08-12T04:10:26.913Z,0
2017-08-12T04:11:07.382Z,0
2017-08-12T04:11:47.838Z,0
2017-08-12T04:12:28.276Z,0
2017-08-12T04:13:08.733Z,0
2017-08-12T04:13:49.192Z,0
2017-08-12T04:14:29.632Z,0
2017-08-12T04:15:10.087Z,0
2017-08-12T04:15:50.547Z,0
2017-08-12T04:16:31.002Z,0
2017-08-12T04:17:11.452Z,0
2017-08-12T04:17:51.902Z,0
2017-08-12T04:18:32.359Z,0
2017-08-12T04:19:12.816Z,0
2017-08-12T04:19:53.278Z,0
2017-08-12T04:20:33.736Z,0
2017-08-12T04:21:14.188Z,0
2017-08-12T04:21:54.648Z,0
2017-08-12T04:22:35.085Z,0
2017-08-12T04:23:15.549Z,0
2017-08-12T04:23:55.991Z,0
2017-08-12T04:24:36.439Z,0
2017-08-12T04:25:16.907Z,0
2017-08-12T04:25:57.346Z,0
2017-08-12T04:26:37.801Z,0
2017-08-12T04:27:18.253Z,0
2017-08-12T04:27:58.698Z,0
2017-08-12T04:28:39.168Z,0
2017-08-12T04:29:19.621Z,0
2017-08-12T04:30:00.078Z,0
2017-08-12T04:30:40.534Z,0
2017-08-12T04:31:21.061Z,0
2017-08-12T04:32:01.513Z,0
2017-08-12T04:32:41.969Z,0
2017-08-12T04:33:22.423Z,0
2017-08-12T04:34:02.880Z,0
2017-08-12T04:34:43.329Z,0
2017-08-12T04:35:23.785Z,0
2017-08-12T04:36:04.242Z,0
2017-08-12T04:36:44.677Z,0
2017-08-12T04:37:25.152Z,0
2017-08-12T04:38:05.611Z,0
2017-08-12T04:38:46.066Z,0
2017-08-12T04:39:26.515Z,0
2017-08-12T04:40:06.967Z,0
2017-08-12T04:40:47.414Z,0
2017-08-12T04:41:27.875Z,0
2017-08-12T04:42:08.332Z,0
2017-08-12T04:42:48.780Z,0
2017-08-12T04:43:29.222Z,0
2017-08-12T04:44:09.690Z,0
2017-08-12T04:44:50.144Z,0
2017-08-12T04:45:30.622Z,0
2017-08-12T04:46:11.062Z,0
2017-08-12T04:46:51.516Z,0
2017-08-12T04:47:31.990Z,0
2017-08-12T04:48:12.443Z,0
2017-08-12T04:48:52.898Z,0
2017-08-12T04:49:33.352Z,0
2017-08-12T04:50:13.817Z,0
2017-08-12T04:50:54.285Z,0
2017-08-12T04:51:34.728Z,0
2017-08-12T04:52:15.177Z,0
2017-08-12T04:52:55.625Z,0
2017-08-12T04:53:36.075Z,0
2017-08-12T04:54:16.526Z,0
2017-08-12T04:54:56.978Z,0
2017-08-12T04:55:37.433Z,0
2017-08-12T04:56:17.887Z,0
2017-08-12T04:56:58.369Z,0
2017-08-12T04:57:38.826Z,0
2017-08-12T04:58:19.275Z,0
2017-08-12T04:58:59.732Z,0
2017-08-12T04:59:40.183Z,0
2017-08-12T05:00:20.633Z,0
2017-08-12T05:01:01.089Z,0
2017-08-12T05:01:41.555Z,0
2017-08-12T05:02:21.998Z,0
2017-08-12T05:03:02.454Z,0
2017-08-12T05:03:42.911Z,0
2017-08-12T05:04:23.366Z,0
2017-08-12T05:05:03.819Z,0
2017-08-12T05:05:44.275Z,0
2017-08-12T05:06:24.729Z,0
2017-08-12T05:07:05.187Z,0
2017-08-12T05:07:45.637Z,0
2017-08-12T05:08:26.135Z,0
2017-08-12T05:09:06.587Z,0
2017-08-12T05:09:47.048Z,0
2017-08-12T05:10:27.502Z,0
2017-08-12T05:11:07.950Z,0
2017-08-12T05:11:48.398Z,0
2017-08-12T05:12:28.848Z,4
2017-08-12T05:13:09.303Z,4
2017-08-12T05:13:49.756Z,4
2017-08-12T05:14:30.223Z,4
2017-08-12T05:15:10.673Z,4
2017-08-12T05:15:51.128Z,4
2017-08-12T05:16:31.582Z,0
2017-08-12T05:17:12.043Z,0
2017-08-12T05:17:52.493Z,0
2017-08-12T05:18:32.957Z,0
2017-08-12T05:19:13.403Z,0
2017-08-12T05:19:53.847Z,0
2017-08-12T05:20:34.308Z,0
2017-08-12T05:21:14.761Z,4
2017-08-12T05:21:55.216Z,4
2017-08-12T05:22:35.664Z,4
2017-08-12T05:23:16.112Z,4
2017-08-12T05:23:56.569Z,4
2017-08-12T05:24:37.028Z,0
2017-08-12T05:25:17.479Z,0
2017-08-12T05:25:57.945Z,0
2017-08-12T05:26:38.390Z,0
2017-08-12T05:27:18.849Z,0
2017-08-12T05:27:59.319Z,4
2017-08-12T05:28:39.783Z,4
2017-08-12T05:29:20.234Z,4
2017-08-12T05:30:00.693Z,4
2017-08-12T05:30:41.156Z,4
2017-08-12T05:31:21.617Z,4
2017-08-12T05:32:02.079Z,4
2017-08-12T05:32:42.530Z,4
2017-08-12T05:33:22.990Z,4
2017-08-12T05:34:03.445Z,4
2017-08-12T05:34:43.900Z,4
2017-08-12T05:35:24.356Z,4
2017-08-12T05:36:04.808Z,4
2017-08-12T05:36:45.261Z,0
2017-08-12T05:37:25.714Z,0
2017-08-12T05:38:06.177Z,0
2017-08-12T05:38:46.634Z,0
2017-08-12T05:39:27.092Z,0
2017-08-12T05:40:07.551Z,4
2017-08-12T05:40:48.004Z,4
2017-08-12T05:41:28.461Z,4
2017-08-12T05:42:08.914Z,4
2017-08-12T05:42:49.372Z,4
2017-08-12T05:43:29.827Z,4
2017-08-12T05:44:10.279Z,4
2017-08-12T05:44:50.741Z,4
2017-08-12T05:45:31.189Z,4
2017-08-12T05:46:11.641Z,4
2017-08-12T05:46:52.092Z,0
2017-08-12T05:47:32.556Z,0
2017-08-12T05:48:13.005Z,0
2017-08-12T05:48:53.462Z,0
2017-08-12T05:49:33.926Z,4
2017-08-12T05:50:14.403Z,4
2017-08-12T05:50:54.868Z,4
2017-08-12T05:51:35.320Z,4
2017-08-12T05:52:15.784Z,4
2017-08-12T05:52:56.241Z,4
2017-08-12T05:53:36.687Z,4
2017-08-12T05:54:17.139Z,4
2017-08-12T05:54:57.580Z,4
2017-08-12T05:55:38.038Z,0
2017-08-12T05:56:18.494Z,0
2017-08-12T05:56:58.949Z,0
2017-08-12T05:57:39.408Z,0
2017-08-12T05:58:19.875Z,0
2017-08-12T05:59:00.329Z,0
2017-08-12T05:59:40.782Z,4
2017-08-12T06:00:21.256Z,4
2017-08-12T06:01:01.703Z,4
2017-08-12T06:01:42.157Z,4
2017-08-12T06:02:22.602Z,0
2017-08-12T06:03:03.041Z,0
2017-08-12T06:03:43.499Z,0
2017-08-12T06:04:23.944Z,0
2017-08-12T06:05:04.402Z,0
2017-08-12T06:05:44.859Z,0
2017-08-12T06:06:25.311Z,0
2017-08-12T06:07:05.758Z,4
2017-08-12T06:07:46.203Z,4
2017-08-12T06:08:26.653Z,4
2017-08-12T06:09:07.105Z,4
2017-08-12T06:09:47.555Z,4
2017-08-12T06:10:28.011Z,4
2017-08-12T06:11:08.461Z,4
2017-08-12T06:11:48.914Z,4
2017-08-12T06:12:29.369Z,4
2017-08-12T06:13:09.828Z,4
2017-08-12T06:13:50.286Z,4
2017-08-12T06:14:30.745Z,4
2017-08-12T06:15:11.238Z,4
2017-08-12T06:15:51.688Z,0
2017-08-12T06:16:32.141Z,0
2017-08-12T06:17:12.596Z,0
2017-08-12T06:17:53.058Z,0
2017-08-12T06:18:33.506Z,0
2017-08-12T06:19:13.963Z,0
2017-08-12T06:19:54.420Z,4
2017-08-12T06:20:34.877Z,4
2017-08-12T06:21:15.322Z,4
2017-08-12T06:21:55.798Z,4
2017-08-12T06:22:36.240Z,4
2017-08-12T06:23:16.689Z,4
2017-08-12T06:23:57.143Z,4
2017-08-12T06:24:37.590Z,4
2017-08-12T06:25:18.052Z,8
2017-08-12T06:25:58.499Z,4
2017-08-12T06:26:38.959Z,4
2017-08-12T06:27:19.414Z,4
2017-08-12T06:27:59.872Z,4
2017-08-12T06:28:40.336Z,4
2017-08-12T06:29:20.795Z,8
2017-08-12T06:30:01.246Z,8
2017-08-12T06:30:41.693Z,8
2017-08-12T06:31:22.145Z,8
2017-08-12T06:32:02.612Z,4
2017-08-12T06:32:43.068Z,4
2017-08-12T06:33:23.530Z,4
2017-08-12T06:34:03.970Z,8
2017-08-12T06:34:44.408Z,8
2017-08-12T06:35:24.858Z,4
2017-08-12T06:36:05.384Z,8
2017-08-12T06:36:45.838Z,8
2017-08-12T06:37:26.300Z,8
2017-08-12T06:38:06.766Z,8
2017-08-12T06:38:47.212Z,8
2017-08-12T06:39:27.673Z,8
2017-08-12T06:40:08.127Z,8
2017-08-12T06:40:48.581Z,12
2017-08-12T06:41:29.051Z,8
2017-08-12T06:42:09.504Z,8
2017-08-12T06:42:49.945Z,8
2017-08-12T06:43:30.402Z,8
2017-08-12T06:44:10.849Z,8
2017-08-12T06:44:51.296Z,12
2017-08-12T06:45:32.156Z,12
2017-08-12T06:46:12.596Z,8
2017-08-12T06:46:53.052Z,8
2017-08-12T06:47:33.515Z,8
2017-08-12T06:48:13.974Z,4
2017-08-12T06:48:54.434Z,8
2017-08-12T06:49:34.891Z,8
2017-08-12T06:50:15.344Z,8
2017-08-12T06:50:55.798Z,8
2017-08-12T06:51:36.262Z,8
2017-08-12T06:52:16.725Z,8
2017-08-12T06:52:57.195Z,8
2017-08-12T06:53:37.633Z,8
2017-08-12T06:54:18.091Z,8
2017-08-12T06:54:58.538Z,8
2017-08-12T06:55:38.997Z,8
2017-08-12T06:56:19.443Z,8
2017-08-12T06:57:00.251Z,8
2017-08-12T06:57:40.710Z,8
2017-08-12T06:58:21.337Z,8
2017-08-12T06:59:01.795Z,8
2017-08-12T06:59:42.245Z,8
2017-08-12T07:00:22.694Z,8
2017-08-12T07:01:03.137Z,8
2017-08-12T07:01:43.602Z,8
2017-08-12T07:02:24.066Z,8
2017-08-12T07:03:04.520Z,8
2017-08-12T07:03:44.971Z,8
2017-08-12T07:04:25.426Z,8
2017-08-12T07:05:05.876Z,8
2017-08-12T07:05:46.334Z,8
2017-08-12T07:06:26.794Z,8
2017-08-12T07:07:07.251Z,8
2017-08-12T07:07:47.693Z,12
2017-08-12T07:08:28.147Z,12
2017-08-12T07:09:08.602Z,8
2017-08-12T07:09:49.053Z,8
2017-08-12T07:10:29.500Z,8
2017-08-12T07:11:09.952Z,8
2017-08-12T07:11:50.409Z,12
2017-08-12T07:12:30.851Z,12
2017-08-12T07:13:11.309Z,12
2017-08-12T07:13:51.765Z,8
2017-08-12T07:14:32.238Z,8
2017-08-12T07:15:12.693Z,8
2017-08-12T07:15:53.153Z,8
2017-08-12T07:16:33.607Z,8
2017-08-12T07:17:14.081Z,8
2017-08-12T07:17:54.547Z,8
2017-08-12T07:18:35.007Z,8
2017-08-12T07:19:15.449Z,8
2017-08-12T07:19:55.899Z,8
2017-08-12T07:20:36.361Z,8
2017-08-12T07:21:16.808Z,8
2017-08-12T07:21:57.252Z,12
2017-08-12T07:22:37.709Z,8
2017-08-12T07:23:18.170Z,8
2017-08-12T07:23:58.627Z,12
2017-08-12T07:24:39.079Z,12
2017-08-12T07:25:19.527Z,12
2017-08-12T07:25:59.998Z,8
2017-08-12T07:26:40.428Z,8
2017-08-12T07:27:20.876Z,12
2017-08-12T07:28:01.322Z,12
2017-08-12T07:28:41.773Z,12
2017-08-12T07:29:22.225Z,12
2017-08-12T07:30:02.678Z,8
2017-08-12T07:30:43.137Z,8
2017-08-12T07:31:23.604Z,8
2017-08-12T07:32:04.041Z,12
2017-08-12T07:32:44.502Z,12
2017-08-12T07:33:24.953Z,16
2017-08-12T07:34:05.412Z,12
2017-08-12T07:34:45.871Z,16
2017-08-12T07:35:26.381Z,16
2017-08-12T07:36:06.836Z,12
2017-08-12T07:36:47.296Z,16
2017-08-12T07:37:27.737Z,16
2017-08-12T07:38:08.191Z,16
2017-08-12T07:38:48.644Z,24
2017-08-12T07:39:29.095Z,24
2017-08-12T07:40:09.549Z,20
2017-08-12T07:40:50.007Z,24
2017-08-12T07:41:30.452Z,24
2017-08-12T07:42:10.904Z,24
2017-08-12T07:42:51.358Z,24
2017-08-12T07:43:31.815Z,24
2017-08-12T07:44:12.262Z,20
2017-08-12T07:44:52.712Z,20
2017-08-12T07:45:33.173Z,20
2017-08-12T07:46:13.623Z,24
2017-08-12T07:46:54.105Z,24
2017-08-12T07:47:34.528Z,20
2017-08-12T07:48:14.980Z,20
2017-08-12T07:48:55.432Z,20
2017-08-12T07:49:35.885Z,20
2017-08-12T07:50:16.342Z,20
2017-08-12T07:50:56.797Z,16
2017-08-12T07:51:37.265Z,16
2017-08-12T07:52:17.710Z,12
2017-08-12T07:52:58.157Z,16
2017-08-12T07:53:38.605Z,12
2017-08-12T07:54:19.056Z,8
2017-08-12T07:54:59.512Z,8
2017-08-12T07:55:39.969Z,12
2017-08-12T07:56:20.424Z,8
2017-08-12T07:57:00.879Z,12
2017-08-12T07:57:41.363Z,12
2017-08-12T07:58:21.815Z,8
2017-08-12T07:59:02.254Z,12
2017-08-12T07:59:42.706Z,8
2017-08-12T08:00:23.166Z,8
2017-08-12T08:01:03.612Z,8
2017-08-12T08:01:44.066Z,8
2017-08-12T08:02:24.538Z,8
2017-08-12T08:03:04.991Z,12
2017-08-12T08:03:45.449Z,16
2017-08-12T08:04:25.904Z,16
2017-08-12T08:05:06.362Z,1216
2017-08-12T08:05:46.825Z,1232
2017-08-12T08:06:27.278Z,1160
2017-08-12T08:07:07.736Z,936
2017-08-12T08:07:48.189Z,896
2017-08-12T08:08:28.659Z,892
2017-08-12T08:09:09.101Z,1052
2017-08-12T08:09:49.561Z,1180
2017-08-12T08:10:30.003Z,1072
2017-08-12T08:11:10.452Z,1092
2017-08-12T08:11:50.913Z,1120
2017-08-12T08:12:31.361Z,1204
2017-08-12T08:13:11.814Z,1188
2017-08-12T08:13:52.265Z,992
2017-08-12T08:14:32.724Z,1092
2017-08-12T08:15:13.179Z,1012
2017-08-12T08:15:53.630Z,944
2017-08-12T08:16:34.076Z,908
2017-08-12T08:17:14.544Z,924
2017-08-12T08:17:54.997Z,988
2017-08-12T08:18:35.453Z,1124
2017-08-12T08:19:15.910Z,1256
2017-08-12T08:19:56.366Z,1400
2017-08-12T08:20:36.830Z,1204
2017-08-12T08:21:17.291Z,1528
2017-08-12T08:21:57.743Z,1496
2017-08-12T08:22:38.196Z,1348
2017-08-12T08:23:18.643Z,1636
2017-08-12T08:23:59.096Z,1896
2017-08-12T08:24:39.536Z,1696
2017-08-12T08:25:19.986Z,1240
2017-08-12T08:26:00.441Z,1096
2017-08-12T08:26:40.888Z,1096
2017-08-12T08:27:21.357Z,1128
2017-08-12T08:28:01.819Z,1192
2017-08-12T08:28:42.297Z,1392
2017-08-12T08:29:22.743Z,1608
2017-08-12T08:30:03.189Z,1748
2017-08-12T08:30:43.637Z,3308
2017-08-12T08:31:24.078Z,1636
2017-08-12T08:32:04.559Z,3080
2017-08-12T08:32:44.987Z,2768
2017-08-12T08:33:25.431Z,1784
2017-08-12T08:34:05.887Z,1252
2017-08-12T08:34:46.334Z,1296
2017-08-12T08:35:26.812Z,1488
2017-08-12T08:36:07.263Z,2632
2017-08-12T08:36:47.724Z,2724
2017-08-12T08:37:28.193Z,2856
2017-08-12T08:38:08.624Z,2872
2017-08-12T08:38:49.091Z,2052
2017-08-12T08:39:29.549Z,3408
2017-08-12T08:40:10.019Z,2904
2017-08-12T08:40:50.479Z,3252
2017-08-12T08:41:30.934Z,1932
2017-08-12T08:42:11.437Z,1836
2017-08-12T08:42:51.892Z,1752
2017-08-12T08:43:32.350Z,1876
2017-08-12T08:44:12.793Z,1764
2017-08-12T08:44:53.249Z,1720
2017-08-12T08:45:33.711Z,1696
2017-08-12T08:46:14.160Z,2072
2017-08-12T08:46:54.613Z,1656
2017-08-12T08:47:35.068Z,1664
2017-08-12T08:48:15.749Z,1668
2017-08-12T08:48:56.201Z,2044
2017-08-12T08:49:36.659Z,2276
2017-08-12T08:50:17.111Z,2728
2017-08-12T08:50:57.566Z,2708
2017-08-12T08:51:38.018Z,3220
2017-08-12T08:52:18.476Z,2492
2017-08-12T08:52:58.932Z,2348
2017-08-12T08:53:40.010Z,1540
2017-08-12T08:54:20.474Z,1332
2017-08-12T08:55:00.932Z,1320
2017-08-12T08:55:41.371Z,1228
2017-08-12T08:56:21.833Z,1176
2017-08-12T08:57:02.278Z,1048
2017-08-12T08:57:42.720Z,936
2017-08-12T08:58:23.175Z,880
2017-08-12T08:59:03.634Z,1076
2017-08-12T08:59:44.066Z,812
2017-08-12T09:00:24.523Z,660
2017-08-12T09:01:04.982Z,592
2017-08-12T09:01:45.427Z,564
2017-08-12T09:02:25.874Z,620
2017-08-12T09:03:06.315Z,736
2017-08-12T09:03:46.762Z,896
2017-08-12T09:04:27.210Z,1096
2017-08-12T09:05:07.673Z,1148
2017-08-12T09:05:48.118Z,1348
2017-08-12T09:06:28.565Z,1508
2017-08-12T09:07:09.025Z,1852
2017-08-12T09:07:49.484Z,1640
2017-08-12T09:08:29.948Z,1544
2017-08-12T09:09:10.397Z,1440
2017-08-12T09:09:50.860Z,1416
2017-08-12T09:10:31.319Z,1928
2017-08-12T09:11:11.786Z,1724
2017-08-12T09:11:52.250Z,1320
2017-08-12T09:12:32.711Z,1032
2017-08-12T09:13:13.176Z,968
2017-08-12T09:13:53.617Z,1040
2017-08-12T09:14:34.062Z,1088
2017-08-12T09:15:14.515Z,1148
2017-08-12T09:15:54.972Z,1204
2017-08-12T09:16:35.429Z,2288
2017-08-12T09:17:15.889Z,2472
2017-08-12T09:17:56.337Z,1848
2017-08-12T09:18:36.804Z,1456
2017-08-12T09:19:17.262Z,1128
2017-08-12T09:19:57.731Z,972
2017-08-12T09:20:38.184Z,992
2017-08-12T09:21:18.632Z,1136
2017-08-12T09:21:59.080Z,1228
2017-08-12T09:22:39.529Z,1368
2017-08-12T09:23:19.981Z,1396
2017-08-12T09:24:00.430Z,1544
2017-08-12T09:24:40.888Z,1652
2017-08-12T09:25:21.379Z,1708
2017-08-12T09:26:01.819Z,1752
2017-08-12T09:26:42.361Z,1584
2017-08-12T09:27:22.809Z,2228
2017-08-12T09:28:03.239Z,1376
2017-08-12T09:28:43.643Z,1164
2017-08-12T09:29:24.092Z,992
2017-08-12T09:30:04.546Z,840
2017-08-12T09:30:45.002Z,796
2017-08-12T09:31:25.462Z,712
2017-08-12T09:32:05.913Z,632
2017-08-12T09:32:46.377Z,628
2017-08-12T09:33:26.827Z,696
2017-08-12T09:34:07.275Z,744
2017-08-12T09:34:47.762Z,788
2017-08-12T09:35:28.233Z,848
2017-08-12T09:36:08.725Z,816
2017-08-12T09:36:49.180Z,820
2017-08-12T09:37:29.635Z,900
2017-08-12T09:38:10.082Z,912
2017-08-12T09:38:50.542Z,908
2017-08-12T09:39:31.004Z,912
2017-08-12T09:40:11.472Z,896
2017-08-12T09:40:51.925Z,916
2017-08-12T09:41:32.377Z,856
2017-08-12T09:42:12.837Z,804
2017-08-12T09:42:53.287Z,888
2017-08-12T09:43:33.741Z,1016
2017-08-12T09:44:14.179Z,988
2017-08-12T09:44:54.645Z,892
2017-08-12T09:45:35.100Z,776
2017-08-12T09:46:15.558Z,676
2017-08-12T09:46:56.013Z,608
2017-08-12T09:47:36.468Z,560
2017-08-12T09:48:16.927Z,560
2017-08-12T09:48:57.369Z,648
2017-08-12T09:49:37.835Z,736
2017-08-12T09:50:18.283Z,712
2017-08-12T09:50:58.739Z,640
2017-08-12T09:51:39.195Z,680
2017-08-12T09:52:19.647Z,836
2017-08-12T09:53:00.111Z,948